Time;durP1;ratioP1;P1;durP2;ratioP2;P2;SDS_P1;SDS_P2;PMS_P1;PMS_P2;Temp;Humidity;BMP_temperature;BMP_pressure;BME280_temperature;BME280_humidity;BME280_pressure;Samples;Min_cycle;Max_cycle;Signal;HPM_P1;HPM_P2
2023/08/25 01:02:54;;;;;;;;;11.50;11.50;;;;;26.00;84.18;100114.94;4905596;29;44815;-80
2023/08/25 01:05:19;;;;;;;;;10.33;8.33;;;;;25.90;85.17;100120.06;4912356;29;45292;-81
2023/08/25 01:07:45;;;;;;;;;10.33;10.33;;;;;25.88;85.44;100124.69;4894352;29;44783;-81
2023/08/25 01:10:11;;;;;;;;;10.67;10.67;;;;;25.84;85.96;100115.81;4911898;29;45493;-80
2023/08/25 01:13:04;;;;;;;;;12.33;10.33;;;;;25.92;86.24;100118.13;4910441;29;44832;-80
2023/08/25 01:15:32;;;;;;;;;11.67;9.00;;;;;25.90;85.89;100120.06;4896050;29;44822;-80
2023/08/25 01:18:04;;;;;;;;;7.67;7.67;;;;;25.80;86.03;100122.41;4894510;29;44908;-81
2023/08/25 01:20:31;;;;;;;;;13.00;11.33;;;;;25.80;86.49;100116.09;4895280;29;46813;-81
2023/08/25 01:23:27;;;;;;;;;12.00;12.00;;;;;25.82;86.73;100115.03;4895202;29;45034;-82
2023/08/25 01:25:53;;;;;;;;;11.33;9.67;;;;;25.69;87.03;100122.16;4911758;29;44903;-82
2023/08/25 01:28:22;;;;;;;;;9.67;9.67;;;;;25.73;87.37;100119.19;4881270;29;44829;-81
2023/08/25 01:30:49;;;;;;;;;12.00;11.00;;;;;25.63;87.59;100120.69;4891540;29;45399;-82
2023/08/25 01:33:15;;;;;;;;;12.33;12.00;;;;;25.63;87.48;100117.97;4891083;29;44768;-82
2023/08/25 01:36:21;;;;;;;;;12.33;12.33;;;;;25.73;87.82;100100.13;4875287;29;44846;-81
2023/08/25 01:39:08;;;;;;;;;9.67;9.67;;;;;25.69;87.99;100109.44;4888165;29;44906;-81
2023/08/25 01:42:02;;;;;;;;;14.00;12.00;;;;;25.66;88.25;100106.88;4889490;29;47677;-82
2023/08/25 01:44:30;;;;;;;;;15.33;15.33;;;;;25.57;88.09;100111.97;4872766;29;44885;-81
2023/08/25 01:47:03;;;;;;;;;11.67;9.33;;;;;25.61;88.47;100094.50;4890766;29;44717;-82
2023/08/25 01:49:31;;;;;;;;;11.33;10.33;;;;;25.57;88.58;100069.28;4891596;29;44713;-83
2023/08/25 01:52:01;;;;;;;;;10.67;10.67;;;;;25.92;86.81;100099.03;4890989;29;46183;-81
2023/08/25 01:54:30;;;;;;;;;13.67;13.00;;;;;25.61;88.48;100106.28;4892764;29;44772;-80
2023/08/25 01:56:57;;;;;;;;;11.67;11.67;;;;;25.51;88.54;100102.31;4892085;29;44766;-81
2023/08/25 01:59:22;;;;;;;;;15.00;13.67;;;;;25.52;88.62;100113.13;4875454;29;44839;-82
2023/08/25 02:01:53;;;;;;;;;13.00;13.00;;;;;25.54;88.77;100096.72;4890671;29;47148;-82
2023/08/25 02:04:19;;;;;;;;;14.67;14.67;;;;;25.50;89.86;100100.56;4891881;29;44802;-81
2023/08/25 02:06:46;;;;;;;;;12.67;12.67;;;;;25.41;90.06;100082.94;4891433;29;44753;-81
2023/08/25 02:09:11;;;;;;;;;15.00;15.00;;;;;25.43;90.03;100091.00;4892550;29;44877;-82
2023/08/25 02:11:37;;;;;;;;;15.67;14.67;;;;;25.41;90.26;100099.28;4891932;29;45479;-82
2023/08/25 02:14:05;;;;;;;;;12.67;12.67;;;;;25.44;90.42;100101.81;4875395;29;45936;-80
2023/08/25 02:16:31;;;;;;;;;13.00;13.00;;;;;25.43;90.64;100101.88;4895158;29;44875;-80
2023/08/25 02:18:57;;;;;;;;;14.00;12.67;;;;;25.40;90.79;100104.81;4895889;29;45462;-81
2023/08/25 02:21:22;;;;;;;;;7.00;5.00;;;;;25.38;90.75;100087.69;4877990;29;47428;-82
2023/08/25 02:23:47;;;;;;;;;14.33;14.33;;;;;25.40;91.10;100083.91;4894046;29;44829;-81
2023/08/25 02:26:13;;;;;;;;;16.00;14.00;;;;;25.24;91.77;100062.13;4878015;29;44702;-81
2023/08/25 02:28:39;;;;;;;;;15.67;15.33;;;;;25.39;91.77;100071.28;4895231;29;44749;-82
2023/08/25 02:31:05;;;;;;;;;13.33;13.33;;;;;25.31;92.39;100062.69;4895061;29;45254;-81
2023/08/25 02:33:30;;;;;;;;;14.33;14.33;;;;;25.36;92.39;100055.09;4894532;29;44755;-81
2023/08/25 02:42:41;;;;;;;;;14.33;14.33;;;;;25.23;93.22;100027.72;4895724;29;44950;-81
2023/08/25 02:45:16;;;;;;;;;20.33;19.67;;;;;25.46;91.55;100030.94;4894267;29;45705;-81
2023/08/25 02:47:41;;;;;;;;;25.00;22.67;;;;;25.44;93.44;100041.03;4878467;29;44826;-81
2023/08/25 02:50:07;;;;;;;;;24.00;24.00;;;;;25.14;95.07;100037.25;4896485;29;44869;-81
2023/08/25 02:52:32;;;;;;;;;24.33;24.33;;;;;25.02;98.26;100040.69;4879938;29;45933;-81
2023/08/25 02:54:58;;;;;;;;;26.00;25.00;;;;;24.86;98.29;100031.63;4880002;29;44677;-81
2023/08/25 02:57:26;;;;;;;;;26.33;25.00;;;;;24.89;100.00;100035.06;4895542;29;44957;-81
2023/08/25 02:59:52;;;;;;;;;25.00;23.67;;;;;24.73;100.00;100039.63;4895076;29;44810;-81
2023/08/25 03:02:17;;;;;;;;;24.00;22.33;;;;;24.69;100.00;100028.03;4874736;29;46623;-81
2023/08/25 03:05:33;;;;;;;;;20.67;19.67;;;;;24.80;100.00;100038.28;4876865;29;44730;-81
2023/08/25 03:07:58;;;;;;;;;25.33;25.33;;;;;24.64;100.00;100048.28;4878173;29;44817;-81
2023/08/25 03:10:24;;;;;;;;;29.00;27.33;;;;;24.47;100.00;100047.34;4878376;29;44821;-82
2023/08/25 03:12:49;;;;;;;;;26.00;24.33;;;;;24.54;100.00;100067.84;4875992;29;46602;-82
2023/08/25 03:15:15;;;;;;;;;27.67;25.67;;;;;24.57;100.00;100084.94;4877711;29;45264;-81
2023/08/25 03:18:34;;;;;;;;;31.00;28.67;;;;;24.70;100.00;100088.72;4890688;29;44951;-81
2023/08/25 03:21:05;;;;;;;;;30.00;29.00;;;;;24.61;100.00;100089.25;4861044;29;44892;-82
2023/08/25 03:23:31;;;;;;;;;30.00;29.33;;;;;24.60;100.00;100096.50;4875628;29;45458;-81
2023/08/25 03:25:56;;;;;;;;;31.33;30.00;;;;;24.65;100.00;100105.31;4874656;29;44745;-81
2023/08/25 03:28:23;;;;;;;;;29.67;28.00;;;;;24.91;100.00;100108.44;4878114;29;44734;-81
2023/08/25 03:30:56;;;;;;;;;36.33;32.67;;;;;24.68;100.00;100113.31;4861379;29;44857;-81
2023/08/25 03:33:23;;;;;;;;;35.00;31.33;;;;;24.72;100.00;100122.16;4889671;29;47369;-81
2023/08/25 03:36:33;;;;;;;;;37.67;32.33;;;;;24.86;100.00;100124.97;4875147;29;44718;-80
2023/08/25 03:38:59;;;;;;;;;33.67;30.67;;;;;24.80;100.00;100106.28;4875619;29;44914;-81
2023/08/25 03:41:35;;;;;;;;;43.00;36.00;;;;;24.93;100.00;100101.06;4874551;29;44881;-80
2023/08/25 03:44:00;;;;;;;;;39.33;33.67;;;;;24.83;100.00;100108.84;4872861;29;46831;-81
2023/08/25 03:46:26;;;;;;;;;42.00;35.67;;;;;24.89;100.00;100113.94;4877009;29;45352;-82
2023/08/25 03:48:51;;;;;;;;;34.67;32.67;;;;;24.92;100.00;100102.00;4875339;29;44852;-82
2023/08/25 03:51:17;;;;;;;;;43.33;37.00;;;;;24.96;100.00;100095.44;4876131;29;44809;-82
2023/08/25 03:53:42;;;;;;;;;32.33;29.67;;;;;25.01;100.00;100090.63;4888892;29;47519;-82
2023/08/25 03:56:08;;;;;;;;;47.33;39.00;;;;;25.03;100.00;100087.84;4874072;29;44724;-82
2023/08/25 03:58:33;;;;;;;;;44.67;37.67;;;;;25.05;100.00;100094.94;4874447;29;44827;-82
2023/08/25 04:01:03;;;;;;;;;45.67;38.00;;;;;25.03;100.00;100090.56;4875117;29;44810;-82
2023/08/25 04:03:39;;;;;;;;;43.00;37.67;;;;;25.12;100.00;100096.31;4873857;29;45087;-81
2023/08/25 04:06:05;;;;;;;;;44.67;37.33;;;;;25.03;100.00;100098.72;4857533;29;45188;-81
2023/08/25 04:08:31;;;;;;;;;45.67;38.33;;;;;25.01;100.00;100095.19;4872716;29;44878;-82
2023/08/25 04:10:57;;;;;;;;;44.67;38.67;;;;;25.00;100.00;100091.59;4872601;29;44770;-81
2023/08/25 04:13:22;;;;;;;;;47.67;40.00;;;;;24.97;100.00;100091.78;4887388;29;46852;-82
2023/08/25 04:15:58;;;;;;;;;45.67;39.33;;;;;25.07;100.00;100092.13;4887365;29;45101;-82
2023/08/25 04:18:24;;;;;;;;;49.67;41.00;;;;;24.97;100.00;100101.78;4874091;29;44762;-80
2023/08/25 04:20:50;;;;;;;;;51.33;42.67;;;;;24.93;100.00;100080.19;4874453;29;44862;-81
2023/08/25 04:23:17;;;;;;;;;50.33;42.33;;;;;24.99;100.00;100067.22;4873851;29;46943;-81
2023/08/25 04:25:43;;;;;;;;;49.33;41.33;;;;;24.92;100.00;100075.69;4889569;29;45167;-82
2023/08/25 04:28:08;;;;;;;;;49.33;40.67;;;;;24.87;100.00;100058.75;4875326;29;45011;-81
2023/08/25 04:30:37;;;;;;;;;49.00;40.33;;;;;24.90;100.00;100074.88;4874837;29;44817;-82
2023/08/25 04:33:03;;;;;;;;;42.33;37.00;;;;;24.90;100.00;100063.13;4871892;29;46873;-81
2023/08/25 04:35:28;;;;;;;;;52.33;43.33;;;;;25.14;100.00;100050.00;4872930;29;44713;-80
2023/08/25 04:38:32;;;;;;;;;51.67;41.67;;;;;25.13;100.00;100057.28;4885483;29;45150;-81
2023/08/25 04:40:57;;;;;;;;;51.33;42.00;;;;;24.93;100.00;100052.09;4872950;29;44793;-80
2023/08/25 04:43:22;;;;;;;;;49.00;42.00;;;;;24.93;100.00;100058.41;4873579;29;45204;-81
2023/08/25 04:45:48;;;;;;;;;54.00;44.00;;;;;24.99;100.00;100067.22;4871275;29;44857;-80
2023/08/25 04:48:16;;;;;;;;;53.00;42.33;;;;;25.03;100.00;100057.91;4887487;29;44781;-80
2023/08/25 04:50:43;;;;;;;;;50.00;42.00;;;;;25.04;100.00;100059.66;4889226;29;44843;-80
2023/08/25 04:53:08;;;;;;;;;52.33;43.67;;;;;25.07;100.00;100059.47;4873617;29;45114;-80
2023/08/25 04:55:34;;;;;;;;;50.67;43.33;;;;;25.06;100.00;100061.31;4872297;29;44884;-80
2023/08/25 04:58:00;;;;;;;;;54.33;44.67;;;;;25.05;100.00;100055.97;4888469;29;44785;-81
2023/08/25 05:00:25;;;;;;;;;53.67;44.67;;;;;25.07;100.00;100048.59;4873656;29;44887;-81
2023/08/25 05:03:00;;;;;;;;;55.00;45.33;;;;;25.11;100.00;100050.19;4885763;29;45610;-81
2023/08/25 05:05:26;;;;;;;;;54.33;44.00;;;;;24.97;100.00;100058.25;4892578;29;44921;-82
2023/08/25 05:07:52;;;;;;;;;60.00;47.67;;;;;24.88;100.00;100051.47;4874246;29;44899;-81
2023/08/25 05:10:18;;;;;;;;;54.33;43.00;;;;;24.75;100.00;100032.25;4874514;29;45475;-81
2023/08/25 05:16:09;;;;;;;;;57.67;46.67;;;;;24.91;100.00;100033.16;4892965;29;44892;-80
2023/08/25 05:18:35;;;;;;;;;53.00;45.00;;;;;24.84;100.00;100042.59;4892604;29;44701;-81
2023/08/25 05:21:01;;;;;;;;;56.67;45.33;;;;;24.87;100.00;100050.59;4893067;29;44867;-81
2023/08/25 05:23:27;;;;;;;;;55.67;45.00;;;;;24.94;100.00;100060.19;4893300;29;45085;-81
2023/08/25 05:25:53;;;;;;;;;54.67;45.00;;;;;24.98;100.00;100065.44;4875837;29;44833;-80
2023/08/25 05:31:49;;;;;;;;;52.67;43.00;;;;;25.21;100.00;100062.31;4893946;29;44741;-81
2023/08/25 05:34:15;;;;;;;;;50.00;41.33;;;;;24.97;100.00;100085.47;4874206;29;47080;-81
2023/08/25 05:36:43;;;;;;;;;51.00;43.33;;;;;24.95;100.00;100080.97;4888945;29;45277;-81
2023/08/25 05:39:09;;;;;;;;;46.33;38.33;;;;;24.83;100.00;100099.81;4891105;29;44884;-80
2023/08/25 05:45:00;;;;;;;;;53.00;44.00;;;;;24.81;100.00;100108.06;4890526;29;44953;-80
2023/08/25 05:47:25;;;;;;;;;51.67;42.00;;;;;24.69;100.00;100114.19;4890865;29;44805;-80
2023/08/25 05:49:51;;;;;;;;;50.00;42.00;;;;;24.59;100.00;100115.63;4892450;29;45273;-81
2023/08/25 05:52:20;;;;;;;;;49.33;40.33;;;;;24.61;100.00;100119.16;4893807;29;44853;-81
2023/08/25 05:54:49;;;;;;;;;50.00;42.33;;;;;24.60;100.00;100110.09;4891746;29;46667;-81
2023/08/25 05:57:14;;;;;;;;;49.00;41.00;;;;;24.40;100.00;100085.81;4894276;29;44783;-81
2023/08/25 05:59:40;;;;;;;;;45.00;39.00;;;;;24.52;100.00;100107.81;4892856;29;44835;-80
2023/08/25 06:02:13;;;;;;;;;49.00;41.00;;;;;24.48;100.00;100100.75;4892764;29;45180;-81
2023/08/25 06:04:38;;;;;;;;;47.00;40.67;;;;;24.52;100.00;100088.78;4875908;29;46834;-81
2023/08/25 06:07:04;;;;;;;;;47.33;40.00;;;;;24.51;100.00;100084.28;4891905;29;44827;-81
2023/08/25 06:09:31;;;;;;;;;44.67;38.67;;;;;24.50;100.00;100070.78;4890346;29;44859;-80
2023/08/25 06:15:32;;;;;;;;;51.67;42.33;;;;;24.60;100.00;100069.31;4891544;29;45497;-80
2023/08/25 06:18:06;;;;;;;;;50.67;42.33;;;;;24.66;100.00;100081.69;4892462;29;44887;-81
2023/08/25 06:20:32;;;;;;;;;50.33;42.00;;;;;24.62;100.00;100091.00;4889392;29;45513;-81
2023/08/25 06:23:01;;;;;;;;;53.33;41.33;;;;;24.74;100.00;100106.63;4887546;29;44930;-81
2023/08/25 06:25:27;;;;;;;;;49.33;40.33;;;;;24.44;100.00;100110.03;4871515;29;45428;-81
2023/08/25 06:28:43;;;;;;;;;45.33;39.00;;;;;24.55;100.00;100099.47;4870372;29;45480;-82
2023/08/25 06:31:09;;;;;;;;;45.67;39.00;;;;;24.38;100.00;100091.34;4889068;29;45550;-82
2023/08/25 06:33:35;;;;;;;;;43.33;35.67;;;;;24.43;100.00;100107.41;4888053;29;45425;-81
2023/08/25 06:36:00;;;;;;;;;35.00;32.33;;;;;24.41;100.00;100104.75;4870016;29;45352;-81
2023/08/25 06:38:27;;;;;;;;;35.00;32.00;;;;;24.69;100.00;100103.31;4867680;29;44769;-82
2023/08/25 06:41:36;;;;;;;;;38.00;33.33;;;;;25.04;100.00;100098.59;4866658;29;45512;-81
2023/08/25 06:44:01;;;;;;;;;36.67;33.00;;;;;25.01;100.00;100100.66;4867807;29;44854;-82
2023/08/25 06:46:27;;;;;;;;;32.67;30.00;;;;;24.98;100.00;100073.59;4866738;29;46863;-82
2023/08/25 06:48:52;;;;;;;;;32.67;30.00;;;;;25.14;100.00;100096.25;4867747;29;45307;-82
2023/08/25 06:51:18;;;;;;;;;27.67;27.00;;;;;25.12;99.88;100085.44;4868918;29;45342;-82
2023/08/25 06:53:46;;;;;;;;;31.00;29.00;;;;;25.18;99.02;100078.78;4868660;29;45059;-82
2023/08/25 06:56:12;;;;;;;;;32.33;29.67;;;;;25.14;99.63;100082.63;4869169;29;45493;-83
2023/08/25 06:58:38;;;;;;;;;28.33;28.33;;;;;25.05;98.55;100083.19;4869515;29;44878;-83
2023/08/25 07:01:04;;;;;;;;;27.67;26.33;;;;;25.04;98.80;100084.13;4869788;29;44929;-82
2023/08/25 07:03:29;;;;;;;;;30.00;28.00;;;;;25.01;99.81;100092.47;4868308;29;45356;-82
2023/08/25 07:06:32;;;;;;;;;27.67;26.00;;;;;25.13;98.81;100080.91;4866979;29;47619;-82
2023/08/25 07:08:57;;;;;;;;;25.33;24.00;;;;;24.87;98.57;100072.38;4869020;29;45405;-82
2023/08/25 07:11:26;;;;;;;;;22.67;22.67;;;;;25.16;98.70;100086.16;4871605;29;45359;-80
2023/08/25 07:13:52;;;;;;;;;26.00;24.00;;;;;25.02;98.09;100077.91;4870082;29;45650;-80
2023/08/25 07:16:24;;;;;;;;;21.00;19.33;;;;;25.16;98.10;100081.56;4870317;29;45561;-81
2023/08/25 07:18:50;;;;;;;;;22.67;22.33;;;;;25.08;97.95;100091.16;4869285;29;45156;-80
2023/08/25 07:21:16;;;;;;;;;24.00;22.67;;;;;25.00;98.30;100090.72;4854012;29;45300;-79
2023/08/25 07:23:42;;;;;;;;;24.33;24.33;;;;;24.93;98.91;100096.50;4879779;29;44906;-81
2023/08/25 07:26:14;;;;;;;;;19.33;19.33;;;;;25.09;98.02;100092.94;4890234;29;45392;-82
2023/08/25 07:28:42;;;;;;;;;25.67;24.00;;;;;24.87;98.74;100094.13;4897092;29;45329;-81
2023/08/25 07:31:08;;;;;;;;;25.33;24.33;;;;;24.86;99.05;100094.19;4884318;29;44890;-82
2023/08/25 07:33:33;;;;;;;;;22.67;21.67;;;;;24.61;99.82;100092.84;4902097;29;45043;-81
2023/08/25 07:36:05;;;;;;;;;18.67;18.00;;;;;24.67;100.00;100113.38;4895040;29;45172;-83
2023/08/25 07:38:31;;;;;;;;;23.00;23.00;;;;;24.47;100.00;100123.44;4898451;29;44872;-82
2023/08/25 07:40:57;;;;;;;;;22.33;22.33;;;;;24.66;100.00;100130.63;4881878;29;45465;-83
2023/08/25 07:43:22;;;;;;;;;23.33;21.67;;;;;24.61;100.00;100122.75;4884280;29;45080;-82
2023/08/25 07:45:52;;;;;;;;;24.33;21.67;;;;;24.65;100.00;100128.91;4880707;29;45408;-84
2023/08/25 07:48:22;;;;;;;;;28.00;24.00;;;;;24.71;100.00;100140.31;4876586;29;46240;-81
2023/08/25 07:51:42;;;;;;;;;;;;;;;;;;;;;
2023/08/25 08:00:15;;;;;;;;;17.33;15.67;;;;;24.57;100.00;100137.47;5358611;23;45624;-83
2023/08/25 08:03:04;;;;;;;;;9.33;9.33;;;;;24.47;100.00;100147.91;4919642;28;44775;-84
2023/08/25 08:10:43;;;;;;;;;9.00;7.00;;;;;24.33;100.00;100153.19;4872347;29;45347;-81
2023/08/25 08:13:08;;;;;;;;;6.00;6.00;;;;;24.23;100.00;100166.38;4861491;29;44881;-79
2023/08/25 08:15:34;;;;;;;;;6.67;5.67;;;;;24.17;100.00;100145.84;4872950;29;44873;-79
2023/08/25 08:18:00;;;;;;;;;5.00;5.00;;;;;24.44;100.00;100163.50;4870013;29;45270;-80
2023/08/25 08:20:27;;;;;;;;;6.00;6.00;;;;;24.34;100.00;100147.69;4870354;29;44742;-81
2023/08/25 08:22:59;;;;;;;;;5.75;5.75;;;;;24.51;99.83;100164.97;4868239;29;44816;-81
2023/08/25 08:25:25;;;;;;;;;6.00;6.00;;;;;24.32;100.00;100175.91;4854679;29;44822;-80
2023/08/25 08:27:56;;;;;;;;;6.25;5.00;;;;;24.31;100.00;100180.44;4870027;29;45668;-81
2023/08/25 08:30:22;;;;;;;;;5.50;5.50;;;;;24.08;100.00;100165.34;4859617;29;44964;-82
2023/08/25 08:36:12;;;;;;;;;4.50;4.50;;;;;23.93;100.00;100160.69;4877722;29;45158;-82
2023/08/25 08:38:44;;;;;;;;;5.00;4.50;;;;;24.01;100.00;100172.03;4857405;29;47023;-82
2023/08/25 08:41:10;;;;;;;;;4.25;3.25;;;;;24.03;99.94;100207.28;4857970;29;45351;-82
2023/08/25 08:43:49;;;;;;;;;3.00;1.50;;;;;23.83;99.38;100178.41;4872775;29;45445;-83
2023/08/25 08:46:21;;;;;;;;;2.50;2.00;;;;;24.06;97.76;100224.31;4860193;29;45628;-80
2023/08/25 08:48:51;;;;;;;;;2.00;2.00;;;;;24.10;96.76;100217.78;4866186;29;45607;-81
2023/08/25 08:51:18;;;;;;;;;4.50;3.00;;;;;23.84;96.02;100169.31;4854867;29;44789;-82
2023/08/25 08:53:53;;;;;;;;;2.75;2.75;;;;;23.92;96.24;100169.81;4861089;29;44858;-83
2023/08/25 08:56:22;;;;;;;;;1.00;1.00;;;;;24.15;94.88;100193.94;4862718;29;45125;-82
2023/08/25 08:59:39;;;;;;;;;3.00;3.00;;;;;24.45;92.88;100220.50;4870608;29;45121;-80
2023/08/25 09:02:08;;;;;;;;;2.25;2.25;;;;;24.06;91.40;100194.44;4850724;29;45369;-80
2023/08/25 09:04:37;;;;;;;;;2.00;2.00;;;;;24.38;92.05;100229.97;4852867;29;44891;-81
2023/08/25 09:07:14;;;;;;;;;4.00;4.00;;;;;24.45;90.45;100220.50;4867203;29;44833;-80
2023/08/25 09:09:52;;;;;;;;;6.25;5.00;;;;;24.41;90.71;100205.31;4879085;29;45326;-79
2023/08/25 09:15:43;;;;;;;;;4.00;4.00;;;;;24.47;89.25;100223.16;4892986;29;44793;-80
2023/08/25 09:18:08;;;;;;;;;3.50;3.00;;;;;24.26;88.93;100207.00;4889903;29;44773;-80
2023/08/25 09:20:38;;;;;;;;;4.00;2.00;;;;;24.60;89.57;100239.72;4890676;29;47078;-79
2023/08/25 09:26:04;;;;;;;;;8.00;5.25;;;;;24.66;87.25;100242.13;4851733;29;44875;-80
2023/08/25 09:31:52;;;;;;;;;13.00;8.00;;;;;24.87;85.13;100260.03;4894702;29;45042;-80
2023/08/25 09:34:18;;;;;;;;;7.25;6.25;;;;;24.94;84.48;100245.16;4884476;29;44848;-80
2023/08/25 09:36:56;;;;;;;;;12.75;7.25;;;;;25.14;83.54;100238.63;4882453;29;44971;-81
2023/08/25 09:39:26;;;;;;;;;7.25;6.00;;;;;25.16;82.50;100252.16;4882107;29;44777;-81
2023/08/25 09:42:08;;;;;;;;;4.25;4.25;;;;;25.27;82.63;100265.19;4864295;29;45752;-81
2023/08/25 09:45:13;;;;;;;;;3.25;3.25;;;;;25.15;80.88;100236.81;4862313;29;45062;-81
2023/08/25 09:47:41;;;;;;;;;1.75;1.75;;;;;25.04;80.00;100239.22;4871996;29;44840;-80
2023/08/25 09:50:07;;;;;;;;;6.50;4.00;;;;;25.22;79.52;100265.44;4858129;29;44930;-81
2023/08/25 09:52:36;;;;;;;;;3.50;3.50;;;;;25.05;79.85;100257.31;4860187;29;45246;-80
2023/08/25 09:55:03;;;;;;;;;5.25;4.25;;;;;25.10;79.60;100271.53;4874692;29;44899;-81
2023/08/25 09:57:31;;;;;;;;;7.25;4.50;;;;;25.15;78.97;100266.72;4890036;29;44960;-79
2023/08/25 09:59:57;;;;;;;;;5.00;3.00;;;;;25.17;78.93;100270.25;4883464;29;44748;-80
2023/08/25 10:02:27;;;;;;;;;5.25;4.00;;;;;25.17;79.52;100245.75;4883326;29;45384;-80
2023/08/25 10:04:56;;;;;;;;;3.50;3.50;;;;;25.08;78.47;100238.09;4877284;29;44808;-80
2023/08/25 10:10:45;;;;;;;;;5.50;5.00;;;;;25.30;76.19;100271.34;4875896;29;44868;-80
2023/08/25 10:13:32;;;;;;;;;3.00;3.00;;;;;25.40;77.17;100265.41;4870847;29;45196;-83
2023/08/25 10:16:07;;;;;;;;;5.50;5.50;;;;;25.07;76.99;100228.19;4869186;29;44991;-81
2023/08/25 10:18:44;;;;;;;;;6.00;6.00;;;;;25.29;76.82;100272.34;4862843;29;44955;-82
2023/08/25 10:21:11;;;;;;;;;7.00;5.75;;;;;25.04;77.08;100266.41;4873474;29;45014;-81
2023/08/25 10:23:39;;;;;;;;;6.25;6.25;;;;;24.97;78.13;100268.59;4875653;29;45252;-81
2023/08/25 10:26:05;;;;;;;;;6.00;6.00;;;;;24.83;78.23;100263.00;4875262;29;44767;-81
2023/08/25 10:28:34;;;;;;;;;5.25;5.25;;;;;24.61;80.15;100272.28;4875777;29;45404;-80
2023/08/25 10:31:04;;;;;;;;;8.00;6.25;;;;;24.90;79.80;100270.75;4874747;29;45384;-82
2023/08/25 10:37:36;;;;;;;;;7.75;5.50;;;;;25.17;77.83;100283.84;4876627;29;44767;-81
2023/08/25 10:40:12;;;;;;;;;9.50;8.50;;;;;25.15;78.26;100291.22;4832408;29;44978;-79
2023/08/25 10:42:38;;;;;;;;;7.00;6.75;;;;;24.99;78.46;100272.13;4816917;29;45421;-80
2023/08/25 10:45:07;;;;;;;;;9.33;7.33;;;;;25.14;78.18;100275.84;4815438;29;47274;-80
2023/08/25 10:47:41;;;;;;;;;9.75;8.75;;;;;25.30;77.00;100275.94;4817960;29;45471;-83
2023/08/25 10:50:07;;;;;;;;;7.00;7.00;;;;;25.30;76.93;100271.34;4820577;29;45422;-82
2023/08/25 10:52:42;;;;;;;;;13.33;11.67;;;;;25.68;76.20;100281.97;4818503;29;45394;-81
2023/08/25 10:55:36;;;;;;;;;6.00;6.00;;;;;25.93;74.85;100278.78;4825101;29;46091;-81
2023/08/25 10:58:06;;;;;;;;;8.75;8.75;;;;;26.08;74.65;100284.31;4810476;29;45408;-79
2023/08/25 11:00:38;;;;;;;;;8.00;8.00;;;;;26.11;73.74;100282.25;4824703;29;45361;-81
2023/08/25 11:03:13;;;;;;;;;9.75;8.00;;;;;26.27;73.61;100273.22;4817140;29;44971;-80
2023/08/25 11:05:41;;;;;;;;;10.75;9.00;;;;;26.41;72.24;100278.72;4832170;29;47942;-82
2023/08/25 11:08:27;;;;;;;;;9.25;9.25;;;;;26.50;71.27;100289.09;4835659;29;44857;-82
2023/08/25 11:11:17;;;;;;;;;8.00;7.33;;;;;26.64;71.70;100284.69;4834910;29;44963;-80
2023/08/25 11:13:43;;;;;;;;;9.67;9.67;;;;;26.60;71.10;100275.81;4832596;29;45432;-81
2023/08/25 11:16:13;;;;;;;;;12.50;11.75;;;;;26.80;69.84;100266.41;4833434;29;46626;-82
2023/08/25 11:18:40;;;;;;;;;12.33;11.33;;;;;26.87;69.83;100275.13;4837214;29;45376;-82
2023/08/25 11:21:09;;;;;;;;;11.33;11.33;;;;;27.06;68.05;100274.84;4808938;29;44864;-81
2023/08/25 11:23:36;;;;;;;;;12.67;11.67;;;;;26.96;68.18;100268.19;4818721;29;44915;-79
2023/08/25 11:26:08;;;;;;;;;10.75;10.75;;;;;27.26;68.18;100285.41;4849736;29;45305;-79
2023/08/25 11:28:37;;;;;;;;;11.00;11.00;;;;;27.62;67.05;100272.25;4854223;29;44827;-79
2023/08/25 11:31:12;;;;;;;;;12.00;12.00;;;;;27.89;65.97;100261.41;4837545;29;44865;-79
2023/08/25 11:33:40;;;;;;;;;14.33;14.33;;;;;28.19;65.07;100276.75;4837357;29;44898;-80
2023/08/25 11:36:06;;;;;;;;;16.33;13.67;;;;;28.22;63.55;100265.59;4837433;29;47070;-81
2023/08/25 11:38:34;;;;;;;;;16.00;15.33;;;;;28.38;63.42;100259.97;4854483;29;45449;-81
2023/08/25 11:41:00;;;;;;;;;13.67;13.67;;;;;28.50;63.69;100275.56;4833989;29;44855;-79
2023/08/25 11:43:36;;;;;;;;;11.67;11.00;;;;;28.83;62.43;100279.72;4853496;29;44831;-79
2023/08/25 11:46:40;;;;;;;;;15.00;15.00;;;;;28.96;60.63;100272.41;4839039;29;46749;-79
2023/08/25 11:49:09;;;;;;;;;11.00;11.00;;;;;28.70;60.93;100279.69;4862931;29;44971;-79
2023/08/25 11:51:37;;;;;;;;;13.00;12.00;;;;;28.62;60.39;100273.88;4843623;29;45141;-80
2023/08/25 12:04:26;;;;;;;;;14.00;10.67;;;;;28.85;60.52;100272.28;5081401;23;46245;-81
2023/08/25 12:06:57;;;;;;;;;14.33;14.00;;;;;28.98;58.97;100285.97;4874325;29;46724;-82
2023/08/25 12:09:24;;;;;;;;;12.00;10.67;;;;;28.60;58.47;100294.97;4868230;29;44860;-82
2023/08/25 12:11:56;;;;;;;;;12.33;12.33;;;;;28.08;59.21;100281.09;4873034;29;44896;-82
2023/08/25 12:22:59;;;;;;;;;13.00;13.00;;;;;27.30;61.21;100297.91;5406105;23;46164;-81
2023/08/25 12:25:31;;;;;;;;;12.00;12.00;;;;;27.20;61.44;100285.78;4899509;29;44848;-83
2023/08/25 12:27:57;;;;;;;;;14.00;14.00;;;;;27.19;61.70;100305.88;4879536;29;47340;-81
2023/08/25 12:30:30;;;;;;;;;10.33;10.00;;;;;26.90;61.90;100277.63;4904335;29;44844;-80
2023/08/25 12:38:57;;;;;;;;;12.33;12.33;;;;;26.54;62.58;100284.31;5016708;23;47533;-82
2023/08/25 12:44:01;;;;;;;;;10.25;10.25;;;;;26.54;63.18;100323.41;5020195;23;44980;-82
2023/08/25 12:46:31;;;;;;;;;12.33;11.00;;;;;26.38;63.00;100276.19;4898170;29;44811;-81
2023/08/25 12:48:57;;;;;;;;;11.33;10.33;;;;;26.43;63.85;100303.19;4872888;29;47024;-80
2023/08/25 12:51:24;;;;;;;;;10.50;9.25;;;;;26.53;63.52;100331.66;4895690;29;44861;-81
2023/08/25 12:53:55;;;;;;;;;10.00;8.00;;;;;26.38;63.43;100298.00;4880965;29;45196;-81
2023/08/25 12:56:23;;;;;;;;;10.00;9.00;;;;;26.35;63.29;100298.16;4898357;29;44929;-82
2023/08/25 12:58:53;;;;;;;;;9.00;8.67;;;;;26.53;63.31;100316.16;4877162;29;47199;-83
2023/08/25 13:01:22;;;;;;;;;8.00;8.00;;;;;26.39;63.19;100309.78;4875752;29;45143;-82
2023/08/25 13:03:51;;;;;;;;;9.67;8.00;;;;;26.53;63.49;100321.63;4888119;29;44747;-87
2023/08/25 13:06:23;;;;;;;;;7.00;7.00;;;;;26.52;63.08;100276.25;4860676;29;44875;-85
2023/08/25 13:08:50;;;;;;;;;7.00;7.00;;;;;26.50;62.38;100282.72;4845567;29;47247;-84
2023/08/25 13:11:23;;;;;;;;;8.50;8.50;;;;;26.55;62.52;100292.41;4879524;29;44685;-85
2023/08/25 13:13:56;;;;;;;;;8.75;8.50;;;;;26.52;62.71;100284.44;4873104;29;44904;-81
2023/08/25 13:16:25;;;;;;;;;8.75;8.75;;;;;26.34;62.54;100260.97;4866496;29;45078;-81
2023/08/25 13:21:30;;;;;;;;;6.00;6.00;;;;;26.42;62.67;100307.75;4652539;23;45489;-81
2023/08/25 13:23:56;;;;;;;;;6.00;5.75;;;;;26.23;62.64;100285.25;4917123;28;44831;-79
2023/08/25 13:26:27;;;;;;;;;7.75;5.75;;;;;26.28;62.99;100291.34;4916841;28;45307;-82
2023/08/25 13:28:53;;;;;;;;;5.67;5.67;;;;;26.20;62.33;100285.41;4895920;29;47118;-80
2023/08/25 13:31:18;;;;;;;;;5.67;5.67;;;;;26.09;62.27;100289.66;4896790;29;44817;-81
2023/08/25 13:33:47;;;;;;;;;6.00;6.00;;;;;26.14;62.44;100292.13;4898681;29;44976;-81
2023/08/25 13:36:20;;;;;;;;;6.67;6.67;;;;;25.99;63.26;100298.44;4918972;28;44830;-81
2023/08/25 13:38:47;;;;;;;;;6.50;6.25;;;;;26.08;63.25;100309.72;4896344;29;45202;-81
2023/08/25 13:56:45;;;;;;;;;6.33;6.33;;;;;25.91;62.64;100301.63;4936012;23;46608;-83
2023/08/25 13:59:17;;;;;;;;;9.00;7.00;;;;;25.89;62.63;100300.78;5274042;23;46873;-82
2023/08/25 14:09:29;;;;;;;;;5.00;5.00;;;;;25.65;63.11;100311.22;5334810;23;46871;-81
2023/08/25 14:11:55;;;;;;;;;8.50;6.00;;;;;25.43;62.72;100278.84;5194591;23;46673;-83
2023/08/25 14:16:57;;;;;;;;;8.00;8.00;;;;;25.45;62.73;100277.81;4956788;23;45087;-81